sensor_id;sensor_type;location;lat;lon;timestamp;P1;durP1;ratioP1;P2;durP2;ratioP2
22060;SDS011;11194;48.092;-1.382;2023-06-26T00:01:27;9.32;;;3.08;;
22060;SDS011;11194;48.092;-1.382;2023-06-26T00:03:56;8.60;;;2.53;;
22060;SDS011;11194;48.092;-1.382;2023-06-26T00:06:24;7.47;;;2.55;;
22060;SDS011;11194;48.092;-1.382;2023-06-26T00:08:51;8.57;;;2.70;;
22060;SDS011;11194;48.092;-1.382;2023-06-26T00:11:17;7.03;;;2.17;;
22060;SDS011;11194;48.092;-1.382;2023-06-26T00:13:44;8.05;;;2.55;;
22060;SDS011;11194;48.092;-1.382;2023-06-26T00:16:10;5.30;;;2.58;;
22060;SDS011;11194;48.092;-1.382;2023-06-26T00:18:36;7.00;;;2.72;;
22060;SDS011;11194;48.092;-1.382;2023-06-26T00:21:02;6.57;;;2.80;;
22060;SDS011;11194;48.092;-1.382;2023-06-26T00:23:28;4.25;;;2.60;;
22060;SDS011;11194;48.092;-1.382;2023-06-26T00:25:56;4.88;;;2.78;;
22060;SDS011;11194;48.092;-1.382;2023-06-26T00:28:22;6.75;;;2.88;;
22060;SDS011;11194;48.092;-1.382;2023-06-26T00:30:48;7.72;;;2.70;;
22060;SDS011;11194;48.092;-1.382;2023-06-26T00:33:14;6.60;;;2.72;;
22060;SDS011;11194;48.092;-1.382;2023-06-26T00:35:40;6.68;;;3.10;;
22060;SDS011;11194;48.092;-1.382;2023-06-26T00:38:07;7.40;;;2.70;;
22060;SDS011;11194;48.092;-1.382;2023-06-26T00:40:33;7.80;;;3.00;;
22060;SDS011;11194;48.092;-1.382;2023-06-26T00:42:59;6.20;;;2.33;;
22060;SDS011;11194;48.092;-1.382;2023-06-26T00:45:25;5.80;;;2.70;;
22060;SDS011;11194;48.092;-1.382;2023-06-26T00:47:51;12.38;;;3.10;;
22060;SDS011;11194;48.092;-1.382;2023-06-26T00:50:17;7.10;;;3.15;;
22060;SDS011;11194;48.092;-1.382;2023-06-26T00:52:44;5.65;;;2.42;;
22060;SDS011;11194;48.092;-1.382;2023-06-26T00:55:10;9.63;;;2.90;;
22060;SDS011;11194;48.092;-1.382;2023-06-26T00:57:36;8.90;;;3.17;;
22060;SDS011;11194;48.092;-1.382;2023-06-26T01:00:03;6.93;;;2.67;;
22060;SDS011;11194;48.092;-1.382;2023-06-26T01:02:29;6.20;;;2.72;;
22060;SDS011;11194;48.092;-1.382;2023-06-26T01:04:58;7.25;;;3.13;;
22060;SDS011;11194;48.092;-1.382;2023-06-26T01:07:25;6.00;;;2.75;;
22060;SDS011;11194;48.092;-1.382;2023-06-26T01:09:51;8.45;;;2.95;;
22060;SDS011;11194;48.092;-1.382;2023-06-26T01:12:17;6.15;;;2.72;;
22060;SDS011;11194;48.092;-1.382;2023-06-26T01:14:43;7.85;;;3.50;;
22060;SDS011;11194;48.092;-1.382;2023-06-26T01:17:10;8.40;;;3.28;;
22060;SDS011;11194;48.092;-1.382;2023-06-26T01:19:38;6.38;;;3.17;;
22060;SDS011;11194;48.092;-1.382;2023-06-26T01:25:12;8.25;;;2.78;;
22060;SDS011;11194;48.092;-1.382;2023-06-26T01:27:43;7.88;;;2.97;;
22060;SDS011;11194;48.092;-1.382;2023-06-26T01:30:09;6.40;;;3.30;;
22060;SDS011;11194;48.092;-1.382;2023-06-26T01:32:36;6.88;;;3.15;;
22060;SDS011;11194;48.092;-1.382;2023-06-26T01:35:04;11.57;;;3.90;;
22060;SDS011;11194;48.092;-1.382;2023-06-26T01:37:31;9.20;;;3.55;;
22060;SDS011;11194;48.092;-1.382;2023-06-26T01:39:57;7.93;;;3.15;;
22060;SDS011;11194;48.092;-1.382;2023-06-26T01:42:23;8.82;;;3.08;;
22060;SDS011;11194;48.092;-1.382;2023-06-26T01:44:50;7.43;;;3.50;;
22060;SDS011;11194;48.092;-1.382;2023-06-26T01:47:19;7.10;;;3.35;;
22060;SDS011;11194;48.092;-1.382;2023-06-26T01:49:49;8.73;;;2.92;;
22060;SDS011;11194;48.092;-1.382;2023-06-26T01:54:52;7.40;;;3.40;;
22060;SDS011;11194;48.092;-1.382;2023-06-26T01:57:19;8.35;;;3.58;;
22060;SDS011;11194;48.092;-1.382;2023-06-26T01:59:47;8.90;;;3.42;;
22060;SDS011;11194;48.092;-1.382;2023-06-26T02:02:14;8.00;;;3.38;;
22060;SDS011;11194;48.092;-1.382;2023-06-26T02:04:40;9.13;;;3.65;;
22060;SDS011;11194;48.092;-1.382;2023-06-26T02:07:07;10.38;;;3.30;;
22060;SDS011;11194;48.092;-1.382;2023-06-26T02:09:34;7.95;;;3.40;;
22060;SDS011;11194;48.092;-1.382;2023-06-26T02:12:01;10.38;;;4.00;;
22060;SDS011;11194;48.092;-1.382;2023-06-26T02:14:27;8.18;;;3.47;;
22060;SDS011;11194;48.092;-1.382;2023-06-26T02:16:53;7.88;;;3.10;;
22060;SDS011;11194;48.092;-1.382;2023-06-26T02:19:20;9.00;;;3.80;;
22060;SDS011;11194;48.092;-1.382;2023-06-26T02:21:49;7.53;;;3.55;;
22060;SDS011;11194;48.092;-1.382;2023-06-26T02:24:15;9.88;;;3.22;;
22060;SDS011;11194;48.092;-1.382;2023-06-26T02:26:41;8.77;;;3.80;;
22060;SDS011;11194;48.092;-1.382;2023-06-26T02:29:07;8.45;;;3.50;;
22060;SDS011;11194;48.092;-1.382;2023-06-26T02:31:33;10.25;;;3.95;;
22060;SDS011;11194;48.092;-1.382;2023-06-26T02:33:59;8.02;;;3.65;;
22060;SDS011;11194;48.092;-1.382;2023-06-26T02:36:25;11.30;;;4.05;;
22060;SDS011;11194;48.092;-1.382;2023-06-26T02:38:51;10.27;;;3.75;;
22060;SDS011;11194;48.092;-1.382;2023-06-26T02:41:17;6.38;;;3.08;;
22060;SDS011;11194;48.092;-1.382;2023-06-26T02:43:43;7.15;;;3.40;;
22060;SDS011;11194;48.092;-1.382;2023-06-26T02:46:09;11.00;;;3.63;;
22060;SDS011;11194;48.092;-1.382;2023-06-26T02:48:35;8.25;;;3.70;;
22060;SDS011;11194;48.092;-1.382;2023-06-26T02:51:01;7.72;;;3.60;;
22060;SDS011;11194;48.092;-1.382;2023-06-26T02:53:27;8.43;;;3.90;;
22060;SDS011;11194;48.092;-1.382;2023-06-26T02:55:53;9.50;;;4.20;;
22060;SDS011;11194;48.092;-1.382;2023-06-26T02:58:19;8.98;;;4.10;;
22060;SDS011;11194;48.092;-1.382;2023-06-26T03:00:45;9.77;;;3.90;;
22060;SDS011;11194;48.092;-1.382;2023-06-26T03:03:12;11.40;;;4.13;;
22060;SDS011;11194;48.092;-1.382;2023-06-26T03:05:38;9.60;;;4.25;;
22060;SDS011;11194;48.092;-1.382;2023-06-26T03:08:04;10.25;;;4.20;;
22060;SDS011;11194;48.092;-1.382;2023-06-26T03:10:30;8.13;;;3.75;;
22060;SDS011;11194;48.092;-1.382;2023-06-26T03:12:56;12.32;;;4.20;;
22060;SDS011;11194;48.092;-1.382;2023-06-26T03:15:22;5.75;;;3.63;;
22060;SDS011;11194;48.092;-1.382;2023-06-26T03:17:49;6.63;;;4.13;;
22060;SDS011;11194;48.092;-1.382;2023-06-26T03:20:15;11.10;;;4.38;;
22060;SDS011;11194;48.092;-1.382;2023-06-26T03:22:41;11.68;;;4.00;;
22060;SDS011;11194;48.092;-1.382;2023-06-26T03:25:07;11.30;;;4.22;;
22060;SDS011;11194;48.092;-1.382;2023-06-26T03:27:33;9.38;;;4.22;;
22060;SDS011;11194;48.092;-1.382;2023-06-26T03:29:59;6.05;;;3.75;;
22060;SDS011;11194;48.092;-1.382;2023-06-26T03:32:25;8.15;;;4.18;;
22060;SDS011;11194;48.092;-1.382;2023-06-26T03:34:51;9.35;;;4.20;;
22060;SDS011;11194;48.092;-1.382;2023-06-26T03:37:21;14.40;;;4.72;;
22060;SDS011;11194;48.092;-1.382;2023-06-26T03:39:47;11.98;;;4.45;;
22060;SDS011;11194;48.092;-1.382;2023-06-26T03:42:13;8.38;;;4.75;;
22060;SDS011;11194;48.092;-1.382;2023-06-26T03:44:39;10.23;;;4.22;;
22060;SDS011;11194;48.092;-1.382;2023-06-26T03:47:05;15.55;;;4.80;;
22060;SDS011;11194;48.092;-1.382;2023-06-26T03:49:31;10.25;;;4.43;;
22060;SDS011;11194;48.092;-1.382;2023-06-26T03:51:57;10.50;;;4.55;;
22060;SDS011;11194;48.092;-1.382;2023-06-26T03:54:23;9.35;;;4.72;;
22060;SDS011;11194;48.092;-1.382;2023-06-26T03:56:49;12.00;;;4.38;;
22060;SDS011;11194;48.092;-1.382;2023-06-26T03:59:15;9.70;;;4.38;;
22060;SDS011;11194;48.092;-1.382;2023-06-26T04:01:41;10.20;;;4.47;;
22060;SDS011;11194;48.092;-1.382;2023-06-26T04:04:08;9.57;;;4.22;;
22060;SDS011;11194;48.092;-1.382;2023-06-26T04:06:34;13.00;;;4.25;;
22060;SDS011;11194;48.092;-1.382;2023-06-26T04:09:00;9.05;;;4.18;;
22060;SDS011;11194;48.092;-1.382;2023-06-26T04:11:27;10.27;;;4.45;;
22060;SDS011;11194;48.092;-1.382;2023-06-26T04:13:53;8.40;;;4.65;;
22060;SDS011;11194;48.092;-1.382;2023-06-26T04:16:20;10.55;;;4.75;;
22060;SDS011;11194;48.092;-1.382;2023-06-26T04:18:46;11.30;;;4.53;;
22060;SDS011;11194;48.092;-1.382;2023-06-26T04:21:12;10.90;;;4.30;;
22060;SDS011;11194;48.092;-1.382;2023-06-26T04:23:39;8.48;;;4.15;;
22060;SDS011;11194;48.092;-1.382;2023-06-26T04:26:06;13.27;;;4.30;;
22060;SDS011;11194;48.092;-1.382;2023-06-26T04:28:33;12.52;;;4.82;;
22060;SDS011;11194;48.092;-1.382;2023-06-26T04:30:59;6.75;;;4.25;;
22060;SDS011;11194;48.092;-1.382;2023-06-26T04:33:26;9.95;;;4.00;;
22060;SDS011;11194;48.092;-1.382;2023-06-26T04:35:52;12.20;;;4.32;;
22060;SDS011;11194;48.092;-1.382;2023-06-26T04:38:19;10.25;;;5.00;;
22060;SDS011;11194;48.092;-1.382;2023-06-26T04:40:45;9.00;;;4.68;;
22060;SDS011;11194;48.092;-1.382;2023-06-26T04:43:11;8.25;;;4.32;;
22060;SDS011;11194;48.092;-1.382;2023-06-26T04:45:37;12.68;;;4.32;;
22060;SDS011;11194;48.092;-1.382;2023-06-26T04:48:03;11.93;;;4.80;;
22060;SDS011;11194;48.092;-1.382;2023-06-26T04:50:31;10.13;;;4.72;;
22060;SDS011;11194;48.092;-1.382;2023-06-26T04:52:58;9.55;;;4.60;;
22060;SDS011;11194;48.092;-1.382;2023-06-26T04:55:25;8.30;;;3.95;;
22060;SDS011;11194;48.092;-1.382;2023-06-26T04:57:51;9.13;;;3.92;;
22060;SDS011;11194;48.092;-1.382;2023-06-26T05:00:18;10.75;;;3.70;;
22060;SDS011;11194;48.092;-1.382;2023-06-26T05:02:44;14.13;;;4.38;;
22060;SDS011;11194;48.092;-1.382;2023-06-26T05:05:10;9.57;;;4.50;;
22060;SDS011;11194;48.092;-1.382;2023-06-26T05:07:37;8.73;;;4.60;;
22060;SDS011;11194;48.092;-1.382;2023-06-26T05:10:03;10.05;;;3.90;;
22060;SDS011;11194;48.092;-1.382;2023-06-26T05:12:29;11.32;;;3.97;;
22060;SDS011;11194;48.092;-1.382;2023-06-26T05:14:55;11.80;;;4.28;;
22060;SDS011;11194;48.092;-1.382;2023-06-26T05:17:21;7.88;;;3.88;;
22060;SDS011;11194;48.092;-1.382;2023-06-26T05:19:47;15.95;;;4.15;;
22060;SDS011;11194;48.092;-1.382;2023-06-26T05:22:13;9.30;;;4.35;;
22060;SDS011;11194;48.092;-1.382;2023-06-26T05:24:40;11.40;;;3.65;;
22060;SDS011;11194;48.092;-1.382;2023-06-26T05:27:08;8.73;;;3.45;;
22060;SDS011;11194;48.092;-1.382;2023-06-26T05:29:34;10.45;;;3.92;;
22060;SDS011;11194;48.092;-1.382;2023-06-26T05:32:00;10.38;;;3.95;;
22060;SDS011;11194;48.092;-1.382;2023-06-26T05:34:26;9.98;;;4.28;;
22060;SDS011;11194;48.092;-1.382;2023-06-26T05:36:55;10.20;;;3.95;;
22060;SDS011;11194;48.092;-1.382;2023-06-26T05:39:23;11.32;;;3.85;;
22060;SDS011;11194;48.092;-1.382;2023-06-26T05:41:49;10.32;;;4.03;;
22060;SDS011;11194;48.092;-1.382;2023-06-26T05:44:16;9.40;;;3.45;;
22060;SDS011;11194;48.092;-1.382;2023-06-26T05:46:42;12.10;;;4.07;;
22060;SDS011;11194;48.092;-1.382;2023-06-26T05:49:08;11.63;;;3.65;;
22060;SDS011;11194;48.092;-1.382;2023-06-26T05:51:34;10.40;;;3.67;;
22060;SDS011;11194;48.092;-1.382;2023-06-26T05:54:00;9.30;;;3.45;;
22060;SDS011;11194;48.092;-1.382;2023-06-26T05:56:27;9.48;;;3.88;;
22060;SDS011;11194;48.092;-1.382;2023-06-26T05:58:54;7.85;;;3.85;;
22060;SDS011;11194;48.092;-1.382;2023-06-26T06:01:20;11.68;;;4.07;;
22060;SDS011;11194;48.092;-1.382;2023-06-26T06:03:46;8.73;;;3.50;;
22060;SDS011;11194;48.092;-1.382;2023-06-26T06:06:12;7.82;;;4.20;;
22060;SDS011;11194;48.092;-1.382;2023-06-26T06:08:38;6.72;;;3.30;;
22060;SDS011;11194;48.092;-1.382;2023-06-26T06:11:05;10.57;;;3.45;;
22060;SDS011;11194;48.092;-1.382;2023-06-26T06:13:31;8.90;;;3.42;;
22060;SDS011;11194;48.092;-1.382;2023-06-26T06:15:57;9.00;;;3.25;;
22060;SDS011;11194;48.092;-1.382;2023-06-26T06:18:23;11.57;;;4.03;;
22060;SDS011;11194;48.092;-1.382;2023-06-26T06:20:49;11.07;;;3.28;;
22060;SDS011;11194;48.092;-1.382;2023-06-26T06:23:15;9.52;;;3.50;;
22060;SDS011;11194;48.092;-1.382;2023-06-26T06:25:41;10.20;;;3.35;;
22060;SDS011;11194;48.092;-1.382;2023-06-26T06:28:07;7.78;;;3.15;;
22060;SDS011;11194;48.092;-1.382;2023-06-26T06:30:33;11.20;;;3.15;;
22060;SDS011;11194;48.092;-1.382;2023-06-26T06:32:59;10.07;;;3.42;;
22060;SDS011;11194;48.092;-1.382;2023-06-26T06:35:25;9.85;;;2.83;;
22060;SDS011;11194;48.092;-1.382;2023-06-26T06:37:52;7.90;;;3.58;;
22060;SDS011;11194;48.092;-1.382;2023-06-26T06:40:18;11.35;;;3.47;;
22060;SDS011;11194;48.092;-1.382;2023-06-26T06:42:44;11.98;;;3.00;;
22060;SDS011;11194;48.092;-1.382;2023-06-26T06:45:10;9.15;;;2.67;;
22060;SDS011;11194;48.092;-1.382;2023-06-26T06:47:36;7.85;;;3.10;;
22060;SDS011;11194;48.092;-1.382;2023-06-26T06:50:02;9.75;;;3.13;;
22060;SDS011;11194;48.092;-1.382;2023-06-26T06:52:34;7.30;;;3.08;;
22060;SDS011;11194;48.092;-1.382;2023-06-26T06:55:00;9.13;;;2.90;;
22060;SDS011;11194;48.092;-1.382;2023-06-26T06:57:31;8.95;;;3.55;;
22060;SDS011;11194;48.092;-1.382;2023-06-26T07:00:01;8.13;;;2.97;;
22060;SDS011;11194;48.092;-1.382;2023-06-26T07:02:27;15.35;;;3.30;;
22060;SDS011;11194;48.092;-1.382;2023-06-26T07:04:54;11.85;;;2.88;;
22060;SDS011;11194;48.092;-1.382;2023-06-26T07:07:20;5.57;;;2.50;;
22060;SDS011;11194;48.092;-1.382;2023-06-26T07:09:46;8.25;;;2.45;;
22060;SDS011;11194;48.092;-1.382;2023-06-26T07:12:12;11.07;;;2.40;;
22060;SDS011;11194;48.092;-1.382;2023-06-26T07:14:38;6.93;;;2.33;;
22060;SDS011;11194;48.092;-1.382;2023-06-26T07:17:04;10.38;;;2.58;;
22060;SDS011;11194;48.092;-1.382;2023-06-26T07:19:30;6.18;;;2.65;;
22060;SDS011;11194;48.092;-1.382;2023-06-26T07:21:56;8.13;;;2.50;;
22060;SDS011;11194;48.092;-1.382;2023-06-26T07:24:22;6.50;;;2.33;;
22060;SDS011;11194;48.092;-1.382;2023-06-26T07:26:48;5.45;;;2.75;;
22060;SDS011;11194;48.092;-1.382;2023-06-26T07:29:14;9.70;;;2.83;;
22060;SDS011;11194;48.092;-1.382;2023-06-26T07:31:41;6.13;;;2.17;;
22060;SDS011;11194;48.092;-1.382;2023-06-26T07:34:07;9.43;;;2.13;;
22060;SDS011;11194;48.092;-1.382;2023-06-26T07:36:33;8.02;;;2.60;;
22060;SDS011;11194;48.092;-1.382;2023-06-26T07:39:00;6.00;;;2.03;;
22060;SDS011;11194;48.092;-1.382;2023-06-26T07:41:26;5.60;;;2.22;;
22060;SDS011;11194;48.092;-1.382;2023-06-26T07:43:55;7.18;;;2.33;;
22060;SDS011;11194;48.092;-1.382;2023-06-26T07:46:21;7.00;;;2.25;;
22060;SDS011;11194;48.092;-1.382;2023-06-26T07:48:47;7.00;;;2.00;;
22060;SDS011;11194;48.092;-1.382;2023-06-26T07:51:13;8.80;;;2.45;;
22060;SDS011;11194;48.092;-1.382;2023-06-26T07:53:39;5.95;;;2.10;;
22060;SDS011;11194;48.092;-1.382;2023-06-26T07:56:05;5.88;;;2.20;;
22060;SDS011;11194;48.092;-1.382;2023-06-26T07:58:31;5.63;;;2.15;;
22060;SDS011;11194;48.092;-1.382;2023-06-26T08:00:57;6.70;;;2.38;;
22060;SDS011;11194;48.092;-1.382;2023-06-26T08:03:23;5.07;;;1.98;;
22060;SDS011;11194;48.092;-1.382;2023-06-26T08:05:49;7.50;;;2.28;;
22060;SDS011;11194;48.092;-1.382;2023-06-26T08:08:15;6.88;;;1.80;;
22060;SDS011;11194;48.092;-1.382;2023-06-26T08:10:41;7.60;;;2.05;;
22060;SDS011;11194;48.092;-1.382;2023-06-26T08:13:08;4.45;;;1.83;;
22060;SDS011;11194;48.092;-1.382;2023-06-26T08:15:34;3.30;;;1.65;;
22060;SDS011;11194;48.092;-1.382;2023-06-26T08:18:01;4.55;;;1.83;;
22060;SDS011;11194;48.092;-1.382;2023-06-26T08:20:27;5.50;;;1.90;;
22060;SDS011;11194;48.092;-1.382;2023-06-26T08:22:53;5.53;;;1.70;;
22060;SDS011;11194;48.092;-1.382;2023-06-26T08:25:20;4.70;;;1.80;;
22060;SDS011;11194;48.092;-1.382;2023-06-26T08:27:46;7.05;;;2.28;;
22060;SDS011;11194;48.092;-1.382;2023-06-26T08:30:12;3.80;;;1.80;;
22060;SDS011;11194;48.092;-1.382;2023-06-26T08:32:39;4.65;;;2.05;;
22060;SDS011;11194;48.092;-1.382;2023-06-26T08:35:06;4.60;;;1.58;;
22060;SDS011;11194;48.092;-1.382;2023-06-26T08:37:35;5.20;;;2.17;;
22060;SDS011;11194;48.092;-1.382;2023-06-26T08:40:01;6.22;;;2.00;;
22060;SDS011;11194;48.092;-1.382;2023-06-26T08:42:27;5.47;;;2.03;;
22060;SDS011;11194;48.092;-1.382;2023-06-26T08:44:53;7.63;;;1.83;;
22060;SDS011;11194;48.092;-1.382;2023-06-26T08:47:19;5.32;;;1.95;;
22060;SDS011;11194;48.092;-1.382;2023-06-26T08:49:53;3.42;;;1.70;;
22060;SDS011;11194;48.092;-1.382;2023-06-26T08:52:28;7.15;;;2.03;;
22060;SDS011;11194;48.092;-1.382;2023-06-26T08:54:57;4.90;;;1.58;;
22060;SDS011;11194;48.092;-1.382;2023-06-26T08:57:24;3.88;;;1.50;;
22060;SDS011;11194;48.092;-1.382;2023-06-26T08:59:51;7.57;;;2.00;;
22060;SDS011;11194;48.092;-1.382;2023-06-26T09:02:17;3.22;;;1.90;;
22060;SDS011;11194;48.092;-1.382;2023-06-26T09:04:46;3.75;;;1.45;;
22060;SDS011;11194;48.092;-1.382;2023-06-26T09:07:13;6.28;;;1.80;;
22060;SDS011;11194;48.092;-1.382;2023-06-26T09:09:39;3.15;;;1.58;;
22060;SDS011;11194;48.092;-1.382;2023-06-26T09:12:06;5.90;;;1.67;;
22060;SDS011;11194;48.092;-1.382;2023-06-26T09:14:34;5.03;;;1.70;;
22060;SDS011;11194;48.092;-1.382;2023-06-26T09:17:00;5.72;;;1.98;;
22060;SDS011;11194;48.092;-1.382;2023-06-26T09:19:27;5.63;;;2.00;;
22060;SDS011;11194;48.092;-1.382;2023-06-26T09:21:53;7.20;;;2.28;;
22060;SDS011;11194;48.092;-1.382;2023-06-26T09:24:20;5.05;;;1.90;;
22060;SDS011;11194;48.092;-1.382;2023-06-26T09:26:47;5.45;;;1.90;;
22060;SDS011;11194;48.092;-1.382;2023-06-26T09:29:13;5.00;;;2.10;;
22060;SDS011;11194;48.092;-1.382;2023-06-26T09:31:40;4.55;;;1.88;;
22060;SDS011;11194;48.092;-1.382;2023-06-26T09:34:06;4.32;;;1.80;;
22060;SDS011;11194;48.092;-1.382;2023-06-26T09:36:32;5.03;;;1.58;;
22060;SDS011;11194;48.092;-1.382;2023-06-26T09:39:04;4.03;;;1.80;;
22060;SDS011;11194;48.092;-1.382;2023-06-26T09:41:33;4.85;;;1.77;;
22060;SDS011;11194;48.092;-1.382;2023-06-26T09:44:02;4.20;;;1.80;;
22060;SDS011;11194;48.092;-1.382;2023-06-26T09:46:29;3.95;;;1.60;;
22060;SDS011;11194;48.092;-1.382;2023-06-26T09:49:06;5.50;;;1.42;;
22060;SDS011;11194;48.092;-1.382;2023-06-26T09:51:36;5.20;;;1.80;;
22060;SDS011;11194;48.092;-1.382;2023-06-26T09:54:03;5.13;;;1.92;;
22060;SDS011;11194;48.092;-1.382;2023-06-26T09:56:29;3.45;;;1.80;;
22060;SDS011;11194;48.092;-1.382;2023-06-26T09:58:56;4.60;;;1.77;;
22060;SDS011;11194;48.092;-1.382;2023-06-26T10:01:23;4.43;;;1.80;;
22060;SDS011;11194;48.092;-1.382;2023-06-26T10:03:49;4.38;;;2.10;;
22060;SDS011;11194;48.092;-1.382;2023-06-26T10:06:16;5.38;;;2.08;;
22060;SDS011;11194;48.092;-1.382;2023-06-26T10:08:43;3.75;;;1.70;;
22060;SDS011;11194;48.092;-1.382;2023-06-26T10:11:11;5.05;;;1.88;;
22060;SDS011;11194;48.092;-1.382;2023-06-26T10:13:38;6.47;;;2.30;;
22060;SDS011;11194;48.092;-1.382;2023-06-26T10:16:05;5.00;;;2.17;;
22060;SDS011;11194;48.092;-1.382;2023-06-26T10:18:33;5.10;;;2.00;;
22060;SDS011;11194;48.092;-1.382;2023-06-26T10:21:00;3.58;;;1.65;;
22060;SDS011;11194;48.092;-1.382;2023-06-26T10:23:28;3.90;;;1.75;;
22060;SDS011;11194;48.092;-1.382;2023-06-26T10:25:55;4.90;;;1.65;;
22060;SDS011;11194;48.092;-1.382;2023-06-26T10:28:23;6.30;;;1.88;;
22060;SDS011;11194;48.092;-1.382;2023-06-26T10:30:51;3.97;;;1.80;;
22060;SDS011;11194;48.092;-1.382;2023-06-26T10:33:18;8.52;;;2.10;;
22060;SDS011;11194;48.092;-1.382;2023-06-26T10:35:45;6.28;;;1.80;;
22060;SDS011;11194;48.092;-1.382;2023-06-26T10:38:11;3.30;;;1.55;;
22060;SDS011;11194;48.092;-1.382;2023-06-26T10:40:44;5.03;;;1.90;;
22060;SDS011;11194;48.092;-1.382;2023-06-26T10:43:13;3.03;;;1.67;;
22060;SDS011;11194;48.092;-1.382;2023-06-26T10:45:46;5.35;;;1.98;;
22060;SDS011;11194;48.092;-1.382;2023-06-26T10:48:17;6.40;;;1.92;;
22060;SDS011;11194;48.092;-1.382;2023-06-26T10:50:43;6.20;;;2.00;;
22060;SDS011;11194;48.092;-1.382;2023-06-26T10:55:44;4.28;;;1.70;;
22060;SDS011;11194;48.092;-1.382;2023-06-26T11:03:45;4.80;;;1.85;;
22060;SDS011;11194;48.092;-1.382;2023-06-26T11:06:12;5.25;;;1.90;;
22060;SDS011;11194;48.092;-1.382;2023-06-26T11:09:00;3.35;;;1.75;;
22060;SDS011;11194;48.092;-1.382;2023-06-26T11:14:09;4.22;;;1.77;;
22060;SDS011;11194;48.092;-1.382;2023-06-26T11:16:36;2.92;;;1.63;;
22060;SDS011;11194;48.092;-1.382;2023-06-26T11:19:02;6.65;;;1.80;;
22060;SDS011;11194;48.092;-1.382;2023-06-26T11:21:28;4.85;;;2.15;;
22060;SDS011;11194;48.092;-1.382;2023-06-26T11:23:54;5.03;;;2.17;;
22060;SDS011;11194;48.092;-1.382;2023-06-26T11:26:23;2.75;;;1.73;;
22060;SDS011;11194;48.092;-1.382;2023-06-26T11:28:54;5.30;;;1.70;;
22060;SDS011;11194;48.092;-1.382;2023-06-26T11:31:23;3.70;;;1.75;;
22060;SDS011;11194;48.092;-1.382;2023-06-26T11:33:50;4.68;;;2.03;;
22060;SDS011;11194;48.092;-1.382;2023-06-26T11:36:16;4.47;;;1.98;;
22060;SDS011;11194;48.092;-1.382;2023-06-26T11:38:42;3.22;;;1.65;;
22060;SDS011;11194;48.092;-1.382;2023-06-26T11:41:08;3.38;;;2.05;;
22060;SDS011;11194;48.092;-1.382;2023-06-26T11:43:34;3.65;;;1.67;;
22060;SDS011;11194;48.092;-1.382;2023-06-26T11:46:00;4.70;;;1.60;;
22060;SDS011;11194;48.092;-1.382;2023-06-26T11:48:26;4.25;;;1.85;;
22060;SDS011;11194;48.092;-1.382;2023-06-26T11:50:54;6.68;;;2.00;;
22060;SDS011;11194;48.092;-1.382;2023-06-26T11:53:20;2.17;;;1.50;;
22060;SDS011;11194;48.092;-1.382;2023-06-26T11:55:46;4.82;;;1.75;;
22060;SDS011;11194;48.092;-1.382;2023-06-26T11:58:12;4.30;;;1.92;;
22060;SDS011;11194;48.092;-1.382;2023-06-26T12:00:41;4.93;;;1.83;;
22060;SDS011;11194;48.092;-1.382;2023-06-26T12:03:11;5.07;;;1.90;;
22060;SDS011;11194;48.092;-1.382;2023-06-26T12:05:37;5.70;;;1.63;;
22060;SDS011;11194;48.092;-1.382;2023-06-26T12:08:04;4.38;;;2.17;;
22060;SDS011;11194;48.092;-1.382;2023-06-26T12:10:32;6.40;;;2.38;;
22060;SDS011;11194;48.092;-1.382;2023-06-26T12:12:58;5.10;;;2.08;;
22060;SDS011;11194;48.092;-1.382;2023-06-26T12:15:26;3.58;;;1.92;;
22060;SDS011;11194;48.092;-1.382;2023-06-26T12:17:53;3.97;;;1.90;;
22060;SDS011;11194;48.092;-1.382;2023-06-26T12:20:23;5.03;;;2.00;;
22060;SDS011;11194;48.092;-1.382;2023-06-26T12:22:50;3.53;;;1.90;;
22060;SDS011;11194;48.092;-1.382;2023-06-26T12:25:23;5.78;;;1.92;;
22060;SDS011;11194;48.092;-1.382;2023-06-26T12:27:49;3.70;;;1.88;;
22060;SDS011;11194;48.092;-1.382;2023-06-26T12:30:15;3.70;;;1.88;;
22060;SDS011;11194;48.092;-1.382;2023-06-26T12:32:45;5.32;;;1.95;;
22060;SDS011;11194;48.092;-1.382;2023-06-26T12:35:11;4.35;;;2.20;;
22060;SDS011;11194;48.092;-1.382;2023-06-26T12:37:37;3.15;;;2.00;;
22060;SDS011;11194;48.092;-1.382;2023-06-26T12:40:19;4.65;;;1.95;;
22060;SDS011;11194;48.092;-1.382;2023-06-26T12:42:48;3.33;;;1.95;;
22060;SDS011;11194;48.092;-1.382;2023-06-26T12:45:15;6.90;;;2.20;;
22060;SDS011;11194;48.092;-1.382;2023-06-26T12:47:41;5.18;;;1.90;;
22060;SDS011;11194;48.092;-1.382;2023-06-26T12:50:07;8.32;;;2.13;;
22060;SDS011;11194;48.092;-1.382;2023-06-26T12:52:34;6.13;;;2.38;;
22060;SDS011;11194;48.092;-1.382;2023-06-26T12:55:00;6.22;;;2.17;;
22060;SDS011;11194;48.092;-1.382;2023-06-26T12:57:26;4.05;;;2.00;;
22060;SDS011;11194;48.092;-1.382;2023-06-26T12:59:52;3.85;;;1.70;;
22060;SDS011;11194;48.092;-1.382;2023-06-26T13:02:19;4.10;;;2.00;;
22060;SDS011;11194;48.092;-1.382;2023-06-26T13:04:45;4.15;;;1.92;;
22060;SDS011;11194;48.092;-1.382;2023-06-26T13:07:11;3.95;;;1.85;;
22060;SDS011;11194;48.092;-1.382;2023-06-26T13:09:38;7.35;;;2.25;;
22060;SDS011;11194;48.092;-1.382;2023-06-26T13:12:05;6.28;;;2.10;;
22060;SDS011;11194;48.092;-1.382;2023-06-26T13:14:32;4.20;;;1.85;;
22060;SDS011;11194;48.092;-1.382;2023-06-26T13:16:59;4.88;;;1.92;;
22060;SDS011;11194;48.092;-1.382;2023-06-26T13:19:26;4.68;;;2.00;;
22060;SDS011;11194;48.092;-1.382;2023-06-26T13:21:52;5.63;;;1.88;;
22060;SDS011;11194;48.092;-1.382;2023-06-26T13:24:18;17.77;;;1.95;;
22060;SDS011;11194;48.092;-1.382;2023-06-26T13:26:44;4.30;;;1.90;;
22060;SDS011;11194;48.092;-1.382;2023-06-26T13:29:10;3.83;;;1.83;;
22060;SDS011;11194;48.092;-1.382;2023-06-26T13:31:36;6.88;;;2.22;;
22060;SDS011;11194;48.092;-1.382;2023-06-26T13:34:03;3.67;;;2.00;;
22060;SDS011;11194;48.092;-1.382;2023-06-26T13:36:30;4.22;;;1.83;;
22060;SDS011;11194;48.092;-1.382;2023-06-26T13:38:58;4.45;;;1.95;;
22060;SDS011;11194;48.092;-1.382;2023-06-26T13:41:24;4.80;;;1.73;;
22060;SDS011;11194;48.092;-1.382;2023-06-26T13:43:51;3.15;;;1.67;;
22060;SDS011;11194;48.092;-1.382;2023-06-26T13:46:17;4.30;;;1.90;;
22060;SDS011;11194;48.092;-1.382;2023-06-26T13:48:44;6.80;;;2.15;;
22060;SDS011;11194;48.092;-1.382;2023-06-26T13:51:10;4.35;;;1.90;;
22060;SDS011;11194;48.092;-1.382;2023-06-26T13:53:36;6.07;;;1.95;;
22060;SDS011;11194;48.092;-1.382;2023-06-26T13:56:02;4.50;;;1.80;;
22060;SDS011;11194;48.092;-1.382;2023-06-26T13:58:28;4.97;;;1.80;;
22060;SDS011;11194;48.092;-1.382;2023-06-26T14:00:57;4.22;;;1.70;;
22060;SDS011;11194;48.092;-1.382;2023-06-26T14:03:23;4.78;;;1.80;;
22060;SDS011;11194;48.092;-1.382;2023-06-26T14:05:49;4.72;;;1.90;;
22060;SDS011;11194;48.092;-1.382;2023-06-26T14:08:15;5.32;;;2.05;;
22060;SDS011;11194;48.092;-1.382;2023-06-26T14:10:41;4.32;;;1.70;;
22060;SDS011;11194;48.092;-1.382;2023-06-26T14:13:08;3.67;;;2.03;;
22060;SDS011;11194;48.092;-1.382;2023-06-26T14:15:34;3.90;;;1.75;;
22060;SDS011;11194;48.092;-1.382;2023-06-26T14:18:00;5.05;;;1.60;;
22060;SDS011;11194;48.092;-1.382;2023-06-26T14:20:27;4.93;;;1.85;;
22060;SDS011;11194;48.092;-1.382;2023-06-26T14:22:57;4.80;;;1.70;;
22060;SDS011;11194;48.092;-1.382;2023-06-26T14:25:23;4.03;;;1.80;;
22060;SDS011;11194;48.092;-1.382;2023-06-26T14:27:49;6.47;;;1.98;;
22060;SDS011;11194;48.092;-1.382;2023-06-26T14:30:15;4.32;;;1.65;;
22060;SDS011;11194;48.092;-1.382;2023-06-26T14:32:41;5.32;;;1.90;;
22060;SDS011;11194;48.092;-1.382;2023-06-26T14:35:08;5.28;;;1.92;;
22060;SDS011;11194;48.092;-1.382;2023-06-26T14:37:35;8.18;;;1.88;;
22060;SDS011;11194;48.092;-1.382;2023-06-26T14:40:04;4.10;;;1.85;;
22060;SDS011;11194;48.092;-1.382;2023-06-26T14:42:30;5.80;;;1.85;;
22060;SDS011;11194;48.092;-1.382;2023-06-26T14:44:56;3.38;;;1.80;;
22060;SDS011;11194;48.092;-1.382;2023-06-26T14:47:22;4.38;;;1.90;;